Time;durP1;ratioP1;P1;durP2;ratioP2;P2;SDS_P1;SDS_P2;PMS_P1;PMS_P2;Temp;Humidity;BMP_temperature;BMP_pressure;BME280_temperature;BME280_humidity;BME280_pressure;Samples;Min_cycle;Max_cycle;Signal;HPM_P1;HPM_P2
2023/01/23 00:00:47;;;;;;;10.88;6.20;;;;;;;;;;10430162;28;20215;-80
2023/01/23 00:05:58;;;;;;;13.23;6.30;;;;;;;;;;10428326;28;20219;-81
2023/01/23 00:10:59;;;;;;;12.45;6.35;;;;;;;;;;10421995;28;20985;-81
2023/01/23 00:16:19;;;;;;;11.57;7.28;;;;;;;;;;10399643;28;20226;-80
2023/01/23 00:21:22;;;;;;;15.27;5.82;;;;;;;;;;10424353;28;20274;-81
2023/01/23 00:26:25;;;;;;;12.40;6.05;;;;;;;;;;10414207;28;20718;-81
2023/01/23 00:31:45;;;;;;;8.45;5.25;;;;;;;;;;10454012;28;20211;-81
2023/01/23 00:36:46;;;;;;;9.02;5.70;;;;;;;;;;10429825;28;20309;-80
2023/01/23 00:41:48;;;;;;;13.55;6.07;;;;;;;;;;10435198;28;20207;-81
2023/01/23 00:46:49;;;;;;;10.73;5.55;;;;;;;;;;10420954;28;20834;-82
2023/01/23 00:51:53;;;;;;;10.30;5.82;;;;;;;;;;10417888;28;20625;-82
2023/01/23 00:56:54;;;;;;;12.48;6.22;;;;;;;;;;10436748;28;20305;-81
2023/01/23 01:01:56;;;;;;;13.35;6.47;;;;;;;;;;10418991;28;20234;-80
2023/01/23 01:06:58;;;;;;;15.35;6.85;;;;;;;;;;10415483;28;20215;-82
2023/01/23 01:11:59;;;;;;;12.15;6.90;;;;;;;;;;10436861;28;20293;-81
2023/01/23 01:17:00;;;;;;;12.27;6.70;;;;;;;;;;10419664;28;20301;-82
2023/01/23 01:22:02;;;;;;;25.98;7.20;;;;;;;;;;10436941;28;20670;-81
2023/01/23 01:27:03;;;;;;;15.27;6.55;;;;;;;;;;10427324;28;20322;-82
2023/01/23 01:32:04;;;;;;;15.00;6.78;;;;;;;;;;10423647;28;20214;-81
2023/01/23 01:37:05;;;;;;;17.23;6.95;;;;;;;;;;10416466;28;20642;-81
2023/01/23 01:42:06;;;;;;;9.98;6.18;;;;;;;;;;10433534;28;20264;-80
2023/01/23 01:47:09;;;;;;;15.45;6.90;;;;;;;;;;10422081;28;20226;-81
2023/01/23 01:52:12;;;;;;;12.35;6.22;;;;;;;;;;10422718;28;20218;-78
2023/01/23 01:57:22;;;;;;;10.30;6.03;;;;;;;;;;10403965;28;20257;-81
2023/01/23 02:02:29;;;;;;;12.85;6.18;;;;;;;;;;10411059;28;20936;-81
2023/01/23 02:07:42;;;;;;;13.13;7.30;;;;;;;;;;10436148;28;20222;-81
2023/01/23 02:12:45;;;;;;;13.65;6.47;;;;;;;;;;10431291;28;20841;-81
2023/01/23 02:17:47;;;;;;;15.30;6.05;;;;;;;;;;10445316;28;20218;-81
2023/01/23 02:23:00;;;;;;;17.35;6.93;;;;;;;;;;10427693;28;20277;-81
2023/01/23 02:28:02;;;;;;;13.93;6.15;;;;;;;;;;10404235;28;20249;-81
2023/01/23 02:33:31;;;;;;;15.80;7.32;;;;;;;;;;10393832;28;20211;-80
2023/01/23 02:38:35;;;;;;;12.15;6.40;;;;;;;;;;10409656;28;20710;-80
2023/01/23 02:43:37;;;;;;;13.30;6.13;;;;;;;;;;10406576;28;20652;-81
2023/01/23 02:48:42;;;;;;;19.67;7.75;;;;;;;;;;10444232;28;20215;-80
2023/01/23 02:53:44;;;;;;;15.20;7.15;;;;;;;;;;10410949;28;20226;-81
2023/01/23 03:04:05;;;;;;;12.55;6.97;;;;;;;;;;10427978;28;20216;-81
2023/01/23 03:09:11;;;;;;;17.60;7.72;;;;;;;;;;10423906;28;20321;-81
2023/01/23 03:14:18;;;;;;;16.45;7.38;;;;;;;;;;10398419;28;20227;-81
2023/01/23 03:19:21;;;;;;;19.00;8.27;;;;;;;;;;10392164;28;20901;-80
2023/01/23 03:24:23;;;;;;;15.68;7.35;;;;;;;;;;10403824;28;20210;-81
2023/01/23 03:34:47;;;;;;;19.63;8.05;;;;;;;;;;10427487;28;20250;-81
2023/01/23 03:45:09;;;;;;;17.80;7.30;;;;;;;;;;10429041;28;20240;-81
2023/01/23 03:50:10;;;;;;;17.50;8.27;;;;;;;;;;10418648;28;20218;-80
2023/01/23 03:55:13;;;;;;;17.35;8.27;;;;;;;;;;10419134;28;20238;-82
2023/01/23 04:00:16;;;;;;;14.10;7.28;;;;;;;;;;10404665;28;20201;-81
2023/01/23 04:05:29;;;;;;;20.02;7.93;;;;;;;;;;10409792;28;20295;-81
2023/01/23 04:10:30;;;;;;;20.17;8.93;;;;;;;;;;10436845;28;20214;-82
2023/01/23 04:15:37;;;;;;;14.23;7.78;;;;;;;;;;10423513;28;20222;-81
2023/01/23 04:20:41;;;;;;;18.45;8.45;;;;;;;;;;10409124;28;20214;-80
2023/01/23 04:25:42;;;;;;;17.88;7.97;;;;;;;;;;10404024;28;20645;-80
2023/01/23 04:30:49;;;;;;;19.88;8.23;;;;;;;;;;10439214;28;20214;-81
2023/01/23 04:36:01;;;;;;;14.40;7.60;;;;;;;;;;10430287;28;20221;-82
2023/01/23 04:41:04;;;;;;;22.35;8.02;;;;;;;;;;10434234;28;20218;-81
2023/01/23 04:46:10;;;;;;;23.35;8.45;;;;;;;;;;10436372;28;20221;-80
2023/01/23 04:51:34;;;;;;;18.83;7.30;;;;;;;;;;10406379;28;20256;-81
2023/01/23 04:56:35;;;;;;;22.08;8.40;;;;;;;;;;10398826;28;20214;-82
2023/01/23 05:01:39;;;;;;;19.63;8.93;;;;;;;;;;10428093;28;20782;-82
2023/01/23 05:06:40;;;;;;;22.33;8.20;;;;;;;;;;10415489;28;20218;-83
2023/01/23 05:11:41;;;;;;;22.52;8.98;;;;;;;;;;10418603;28;20723;-81
2023/01/23 05:16:45;;;;;;;25.08;10.18;;;;;;;;;;10440041;28;20223;-81
2023/01/23 05:21:49;;;;;;;21.45;8.57;;;;;;;;;;10432764;28;20215;-80
2023/01/23 05:26:54;;;;;;;23.08;8.75;;;;;;;;;;10419606;28;20211;-81
2023/01/23 05:31:55;;;;;;;25.20;8.57;;;;;;;;;;10432950;28;20791;-81
2023/01/23 05:37:24;;;;;;;25.83;8.50;;;;;;;;;;10425065;28;20654;-81
2023/01/23 05:42:26;;;;;;;24.77;8.07;;;;;;;;;;10407503;28;20773;-80
2023/01/23 05:47:56;;;;;;;20.15;7.75;;;;;;;;;;10418401;28;20241;-80
2023/01/23 05:52:58;;;;;;;24.17;8.63;;;;;;;;;;10386583;28;20218;-82
2023/01/23 05:57:59;;;;;;;26.70;8.90;;;;;;;;;;10400019;28;20229;-80
2023/01/23 06:03:17;;;;;;;20.38;8.55;;;;;;;;;;10409323;28;20287;-81
2023/01/23 06:08:39;;;;;;;24.27;8.93;;;;;;;;;;10406757;28;20218;-81
2023/01/23 06:13:41;;;;;;;20.52;9.60;;;;;;;;;;10426181;28;20715;-81
2023/01/23 06:18:42;;;;;;;18.95;9.30;;;;;;;;;;10439280;28;20231;-80
2023/01/23 06:23:44;;;;;;;19.85;8.57;;;;;;;;;;10387900;28;20219;-82
2023/01/23 06:28:46;;;;;;;20.83;9.25;;;;;;;;;;10424850;28;20241;-82
2023/01/23 06:33:51;;;;;;;24.83;10.75;;;;;;;;;;10429526;28;20241;-82
2023/01/23 06:38:53;;;;;;;30.58;10.70;;;;;;;;;;10429094;28;20217;-83
2023/01/23 06:44:00;;;;;;;20.67;8.88;;;;;;;;;;10416462;28;20210;-82
2023/01/23 06:49:03;;;;;;;21.98;8.48;;;;;;;;;;10410525;28;20219;-82
2023/01/23 06:54:06;;;;;;;21.80;9.35;;;;;;;;;;10425292;28;20222;-83
2023/01/23 06:59:08;;;;;;;23.38;8.98;;;;;;;;;;10410253;28;20214;-81
2023/01/23 07:04:09;;;;;;;24.00;9.35;;;;;;;;;;10424745;28;20297;-79
2023/01/23 07:09:12;;;;;;;23.40;8.80;;;;;;;;;;10389596;28;20222;-82
2023/01/23 07:14:14;;;;;;;18.48;7.85;;;;;;;;;;10420825;28;20245;-81
2023/01/23 07:19:18;;;;;;;19.60;8.50;;;;;;;;;;10398785;28;20238;-81
2023/01/23 07:24:19;;;;;;;20.95;7.60;;;;;;;;;;10407056;28;20249;-82
2023/01/23 07:29:20;;;;;;;21.30;8.68;;;;;;;;;;10404997;28;20724;-81
2023/01/23 07:34:21;;;;;;;18.48;8.45;;;;;;;;;;10427224;28;20214;-84
2023/01/23 07:39:22;;;;;;;13.63;7.88;;;;;;;;;;10391894;28;20207;-81
2023/01/23 07:44:23;;;;;;;18.73;9.43;;;;;;;;;;10409204;28;20210;-81
2023/01/23 07:49:25;;;;;;;26.08;8.80;;;;;;;;;;10430185;28;20226;-82
2023/01/23 07:54:26;;;;;;;24.30;9.13;;;;;;;;;;10430912;28;20225;-81
2023/01/23 07:59:27;;;;;;;18.45;7.85;;;;;;;;;;10435279;28;20297;-80
2023/01/23 08:04:28;;;;;;;16.20;8.07;;;;;;;;;;10429155;28;20723;-81
2023/01/23 08:09:29;;;;;;;30.85;8.88;;;;;;;;;;10422488;28;20222;-81
2023/01/23 08:14:30;;;;;;;17.70;8.65;;;;;;;;;;10425613;28;20219;-80
2023/01/23 08:19:31;;;;;;;19.75;8.40;;;;;;;;;;10406979;28;20207;-82
2023/01/23 08:24:32;;;;;;;18.02;8.00;;;;;;;;;;10426973;28;20215;-81
2023/01/23 08:29:34;;;;;;;24.95;9.82;;;;;;;;;;10423897;28;20230;-83
2023/01/23 08:34:35;;;;;;;19.88;9.50;;;;;;;;;;10397700;28;21071;-81
2023/01/23 08:39:36;;;;;;;29.58;11.35;;;;;;;;;;10388830;28;20219;-81
2023/01/23 08:44:38;;;;;;;20.65;8.68;;;;;;;;;;10426071;28;20621;-81
2023/01/23 08:49:39;;;;;;;22.42;9.45;;;;;;;;;;10408514;28;20326;-80
2023/01/23 08:54:40;;;;;;;23.10;9.48;;;;;;;;;;10392324;28;20540;-80
2023/01/23 08:59:43;;;;;;;27.58;10.02;;;;;;;;;;10422308;28;20930;-79
2023/01/23 09:04:45;;;;;;;22.17;9.73;;;;;;;;;;10426751;28;20218;-81
2023/01/23 09:09:46;;;;;;;20.73;9.07;;;;;;;;;;10421854;28;20210;-80
2023/01/23 09:14:47;;;;;;;26.08;9.25;;;;;;;;;;10417028;28;20215;-82
2023/01/23 09:19:48;;;;;;;20.65;8.43;;;;;;;;;;10427469;28;20230;-80
2023/01/23 09:24:49;;;;;;;25.98;11.95;;;;;;;;;;10427532;28;20267;-81
2023/01/23 09:29:51;;;;;;;24.77;10.77;;;;;;;;;;10398513;28;20726;-81
2023/01/23 09:34:53;;;;;;;28.10;9.73;;;;;;;;;;10403930;28;20684;-80
2023/01/23 09:39:54;;;;;;;18.70;8.73;;;;;;;;;;10409538;28;20218;-81
2023/01/23 09:45:02;;;;;;;21.77;8.20;;;;;;;;;;10406653;28;20202;-80
2023/01/23 09:50:06;;;;;;;19.90;7.95;;;;;;;;;;10419792;28;20234;-82
2023/01/23 09:55:22;;;;;;;18.10;8.23;;;;;;;;;;10415683;28;20199;-82
2023/01/23 10:00:28;;;;;;;22.00;8.52;;;;;;;;;;10418728;28;20805;-81
2023/01/23 10:05:41;;;;;;;15.70;8.02;;;;;;;;;;10423665;28;20253;-81
2023/01/23 10:10:45;;;;;;;20.00;8.57;;;;;;;;;;10407539;28;20664;-78
2023/01/23 10:15:46;;;;;;;18.90;8.48;;;;;;;;;;10425016;28;20218;-81
2023/01/23 10:21:02;;;;;;;18.15;8.07;;;;;;;;;;10420631;28;20310;-80
2023/01/23 10:26:03;;;;;;;19.17;8.32;;;;;;;;;;10410326;28;20214;-80
2023/01/23 10:31:08;;;;;;;19.05;8.57;;;;;;;;;;10427177;28;20221;-80
2023/01/23 10:36:18;;;;;;;21.08;9.02;;;;;;;;;;10406454;28;20993;-79
2023/01/23 10:41:20;;;;;;;21.23;8.82;;;;;;;;;;10410661;28;20221;-82
2023/01/23 10:46:21;;;;;;;22.25;8.27;;;;;;;;;;10414918;28;20207;-83
2023/01/23 10:51:33;;;;;;;15.65;9.13;;;;;;;;;;10408664;28;20223;-82
2023/01/23 10:56:35;;;;;;;13.27;8.13;;;;;;;;;;10410969;28;20225;-79
2023/01/23 11:01:37;;;;;;;18.75;8.93;;;;;;;;;;10422994;28;20242;-80
2023/01/23 11:06:38;;;;;;;20.13;9.02;;;;;;;;;;10428348;28;20268;-80
2023/01/23 11:11:39;;;;;;;21.60;10.05;;;;;;;;;;10423787;28;20211;-82
2023/01/23 11:16:40;;;;;;;13.85;8.50;;;;;;;;;;10426212;28;20246;-81
2023/01/23 11:21:53;;;;;;;21.30;9.23;;;;;;;;;;10423564;28;20305;-80
2023/01/23 11:27:04;;;;;;;18.90;8.90;;;;;;;;;;10411805;28;20257;-80
2023/01/23 11:32:09;;;;;;;21.23;9.05;;;;;;;;;;10428794;28;20211;-82
2023/01/23 11:37:17;;;;;;;18.30;10.07;;;;;;;;;;10420627;28;20226;-82
2023/01/23 11:42:19;;;;;;;17.42;9.23;;;;;;;;;;10415563;28;20734;-80
2023/01/23 11:47:23;;;;;;;22.95;10.55;;;;;;;;;;10386813;28;20218;-81
2023/01/23 11:52:33;;;;;;;17.90;8.82;;;;;;;;;;10399896;28;20242;-80
2023/01/23 11:58:00;;;;;;;22.30;9.05;;;;;;;;;;10418629;28;20222;-81
2023/01/23 12:03:29;;;;;;;24.98;10.15;;;;;;;;;;10430054;28;20211;-82
2023/01/23 12:08:37;;;;;;;22.75;10.27;;;;;;;;;;10422288;28;20268;-81
2023/01/23 12:13:51;;;;;;;29.58;10.05;;;;;;;;;;10389951;28;20218;-81
2023/01/23 12:19:06;;;;;;;20.77;8.80;;;;;;;;;;10429525;28;20337;-82
2023/01/23 12:24:25;;;;;;;27.67;10.65;;;;;;;;;;10432261;28;21071;-81
2023/01/23 12:29:42;;;;;;;23.88;9.90;;;;;;;;;;10427582;28;20297;-80
2023/01/23 12:35:01;;;;;;;19.38;10.15;;;;;;;;;;10430549;28;20704;-81
2023/01/23 12:40:10;;;;;;;24.38;10.35;;;;;;;;;;10433289;28;20206;-80
2023/01/23 12:45:25;;;;;;;16.90;8.60;;;;;;;;;;10410614;28;20187;-79
2023/01/23 12:50:44;;;;;;;19.73;9.27;;;;;;;;;;10420082;28;20225;-80
2023/01/23 12:55:52;;;;;;;22.25;11.07;;;;;;;;;;10411476;28;20300;-82
2023/01/23 13:00:58;;;;;;;24.55;10.88;;;;;;;;;;10428779;28;20225;-81
2023/01/23 13:05:59;;;;;;;17.85;8.88;;;;;;;;;;10414100;28;20211;-81
2023/01/23 13:16:32;;;;;;;26.75;10.52;;;;;;;;;;10411723;28;20734;-80
2023/01/23 13:26:53;;;;;;;19.02;9.63;;;;;;;;;;10426272;28;20892;-79
2023/01/23 13:32:13;;;;;;;27.00;10.45;;;;;;;;;;10411013;28;20237;-80
2023/01/23 13:37:31;;;;;;;23.05;9.65;;;;;;;;;;10406044;28;20231;-80
2023/01/23 13:42:33;;;;;;;19.27;9.70;;;;;;;;;;10431684;28;20217;-80
2023/01/23 13:58:22;;;;;;;20.80;10.82;;;;;;;;;;10426487;28;20341;-80
2023/01/23 14:08:52;;;;;;;27.13;10.85;;;;;;;;;;10427731;28;20218;-81
2023/01/23 14:19:23;;;;;;;22.15;9.68;;;;;;;;;;10424780;28;20588;-80
2023/01/23 14:24:27;;;;;;;22.60;9.35;;;;;;;;;;10420677;28;20214;-80
2023/01/23 14:29:29;;;;;;;20.67;9.65;;;;;;;;;;10422346;28;20249;-80
2023/01/23 14:34:37;;;;;;;18.58;8.50;;;;;;;;;;10453289;28;23909;-81
2023/01/23 14:39:39;;;;;;;19.48;8.80;;;;;;;;;;10454098;28;20222;-82
2023/01/23 14:44:43;;;;;;;19.50;8.88;;;;;;;;;;10422976;28;20318;-80
2023/01/23 14:49:46;;;;;;;18.20;8.32;;;;;;;;;;10452478;28;20692;-81
2023/01/23 14:54:47;;;;;;;21.33;8.70;;;;;;;;;;10442545;28;20239;-80
2023/01/23 14:59:49;;;;;;;20.25;8.75;;;;;;;;;;10434805;28;20225;-82
2023/01/23 15:05:09;;;;;;;19.60;9.20;;;;;;;;;;10432495;28;20207;-81
2023/01/23 15:10:19;;;;;;;17.55;9.15;;;;;;;;;;10434883;28;20215;-80
2023/01/23 15:15:21;;;;;;;21.02;9.95;;;;;;;;;;10421507;28;20684;-81
2023/01/23 15:20:31;;;;;;;16.55;8.60;;;;;;;;;;10428103;28;20247;-80
2023/01/23 15:25:33;;;;;;;15.23;6.82;;;;;;;;;;10432498;28;20218;-81
2023/01/23 15:30:44;;;;;;;18.75;8.40;;;;;;;;;;10411386;28;20352;-81
2023/01/23 15:35:45;;;;;;;23.10;9.27;;;;;;;;;;10420746;28;20291;-81
2023/01/23 15:40:47;;;;;;;14.57;8.38;;;;;;;;;;10423797;28;20223;-81
2023/01/23 15:45:48;;;;;;;14.52;7.90;;;;;;;;;;10427603;28;20300;-80
2023/01/23 15:50:49;;;;;;;16.05;8.65;;;;;;;;;;10433137;28;20229;-81
2023/01/23 15:55:50;;;;;;;18.15;9.00;;;;;;;;;;10428038;28;20218;-80
2023/01/23 16:00:51;;;;;;;18.30;9.07;;;;;;;;;;10437363;28;20272;-82
2023/01/23 16:05:53;;;;;;;21.42;9.10;;;;;;;;;;10438208;28;20222;-82
2023/01/23 16:10:55;;;;;;;17.60;8.95;;;;;;;;;;10410549;28;20286;-81
2023/01/23 16:15:56;;;;;;;16.85;9.43;;;;;;;;;;10425964;28;20219;-80
2023/01/23 16:20:57;;;;;;;18.05;9.65;;;;;;;;;;10434504;28;20215;-81
2023/01/23 16:25:58;;;;;;;18.60;9.48;;;;;;;;;;10433164;28;24220;-80
2023/01/23 16:31:00;;;;;;;16.80;8.88;;;;;;;;;;10433234;28;20238;-80
2023/01/23 16:36:01;;;;;;;16.30;8.65;;;;;;;;;;10412759;28;20294;-80
2023/01/23 16:41:02;;;;;;;16.58;8.48;;;;;;;;;;10433540;28;20440;-79
2023/01/23 16:46:03;;;;;;;16.63;8.82;;;;;;;;;;10416255;28;20219;-78
2023/01/23 16:51:07;;;;;;;20.20;8.38;;;;;;;;;;10430705;28;20834;-78
2023/01/23 16:56:14;;;;;;;18.17;9.20;;;;;;;;;;10429507;28;20948;-80
2023/01/23 17:01:17;;;;;;;20.92;8.55;;;;;;;;;;10419062;28;20600;-81
2023/01/23 17:06:18;;;;;;;15.85;9.00;;;;;;;;;;10429034;28;20477;-78
2023/01/23 17:11:22;;;;;;;18.30;8.55;;;;;;;;;;10395467;28;20210;-82
2023/01/23 17:16:24;;;;;;;14.48;8.02;;;;;;;;;;10409281;28;21084;-81
2023/01/23 17:21:29;;;;;;;16.52;8.57;;;;;;;;;;10417438;28;20223;-81
2023/01/23 17:26:30;;;;;;;13.73;7.88;;;;;;;;;;10377285;28;20222;-81
2023/01/23 17:31:31;;;;;;;19.67;9.40;;;;;;;;;;10423966;28;20215;-81
2023/01/23 17:36:33;;;;;;;17.80;8.25;;;;;;;;;;10386920;28;20223;-80
2023/01/23 17:41:34;;;;;;;16.20;8.63;;;;;;;;;;10421420;28;20215;-79
2023/01/23 17:46:36;;;;;;;14.95;8.32;;;;;;;;;;10429664;28;20982;-81
2023/01/23 17:51:37;;;;;;;18.60;8.10;;;;;;;;;;10432445;28;20573;-81
2023/01/23 17:56:38;;;;;;;13.65;7.85;;;;;;;;;;10423275;28;20215;-83
2023/01/23 18:01:40;;;;;;;12.93;7.53;;;;;;;;;;10436238;28;20253;-82
2023/01/23 18:06:41;;;;;;;17.17;8.45;;;;;;;;;;10442391;28;20217;-84
2023/01/23 18:11:50;;;;;;;21.05;9.32;;;;;;;;;;10403952;28;20227;-82
2023/01/23 18:16:52;;;;;;;15.00;8.52;;;;;;;;;;10413518;28;20273;-83
2023/01/23 18:21:55;;;;;;;17.35;8.68;;;;;;;;;;10412714;28;20214;-81
2023/01/23 18:26:56;;;;;;;15.73;7.88;;;;;;;;;;10428434;28;20237;-83
2023/01/23 18:32:13;;;;;;;14.38;8.65;;;;;;;;;;10441512;28;21102;-84
2023/01/23 18:37:34;;;;;;;17.80;8.55;;;;;;;;;;10426226;28;20313;-82
2023/01/23 18:42:38;;;;;;;18.33;8.68;;;;;;;;;;10402134;28;20230;-81
2023/01/23 18:47:39;;;;;;;17.70;9.02;;;;;;;;;;10405643;28;20226;-82
2023/01/23 18:52:41;;;;;;;19.15;8.82;;;;;;;;;;10421511;28;20696;-81
2023/01/23 18:57:48;;;;;;;18.88;9.55;;;;;;;;;;10419744;28;20230;-81
2023/01/23 19:02:51;;;;;;;17.50;8.48;;;;;;;;;;10424754;28;20217;-80
2023/01/23 19:07:54;;;;;;;16.35;8.50;;;;;;;;;;10416869;28;20265;-79
2023/01/23 19:12:55;;;;;;;17.58;8.30;;;;;;;;;;10420061;28;20267;-79
2023/01/23 19:18:05;;;;;;;19.95;9.68;;;;;;;;;;10420504;28;20223;-80
2023/01/23 19:23:15;;;;;;;17.40;9.43;;;;;;;;;;10389192;28;20658;-81
2023/01/23 19:28:16;;;;;;;17.83;9.00;;;;;;;;;;10417817;28;20214;-80
2023/01/23 19:33:18;;;;;;;23.73;8.63;;;;;;;;;;10437556;28;20222;-80
2023/01/23 19:38:19;;;;;;;14.88;8.43;;;;;;;;;;10421990;28;20223;-79
2023/01/23 19:43:21;;;;;;;15.18;8.82;;;;;;;;;;10400663;28;20337;-80
2023/01/23 19:48:22;;;;;;;15.73;8.07;;;;;;;;;;10421529;28;20230;-79
2023/01/23 19:53:23;;;;;;;19.67;8.77;;;;;;;;;;10420020;28;20337;-79
2023/01/23 19:58:24;;;;;;;14.30;8.40;;;;;;;;;;10419502;28;20229;-79
2023/01/23 20:03:25;;;;;;;18.17;9.02;;;;;;;;;;10401570;28;20275;-79
2023/01/23 20:08:27;;;;;;;17.35;9.00;;;;;;;;;;10411499;28;20215;-78
2023/01/23 20:13:28;;;;;;;18.90;9.48;;;;;;;;;;10415500;28;23851;-80
2023/01/23 20:18:29;;;;;;;16.77;8.48;;;;;;;;;;10422533;28;21522;-80
2023/01/23 20:23:30;;;;;;;18.17;8.98;;;;;;;;;;10400637;28;20222;-79
2023/01/23 20:28:32;;;;;;;20.30;9.43;;;;;;;;;;10401412;28;20219;-79
2023/01/23 20:33:33;;;;;;;15.50;8.50;;;;;;;;;;10418583;28;20215;-79
2023/01/23 20:38:34;;;;;;;16.50;8.05;;;;;;;;;;10421224;28;20272;-80
2023/01/23 20:43:37;;;;;;;16.95;9.10;;;;;;;;;;10424249;28;20309;-79
2023/01/23 20:48:39;;;;;;;21.23;8.70;;;;;;;;;;10411585;28;20225;-80
2023/01/23 20:53:41;;;;;;;19.27;8.45;;;;;;;;;;10394538;28;20218;-80
2023/01/23 21:04:07;;;;;;;18.48;8.80;;;;;;;;;;10418538;28;20760;-81
2023/01/23 21:09:08;;;;;;;17.70;8.63;;;;;;;;;;10421272;28;21053;-79
2023/01/23 21:14:09;;;;;;;28.02;9.00;;;;;;;;;;10424316;28;20288;-80
2023/01/23 21:19:11;;;;;;;15.93;8.00;;;;;;;;;;10418375;28;20241;-80
2023/01/23 21:24:12;;;;;;;15.18;8.60;;;;;;;;;;10432401;28;20257;-80
2023/01/23 21:29:13;;;;;;;23.67;8.35;;;;;;;;;;10436209;28;20211;-80
2023/01/23 21:34:14;;;;;;;13.48;7.65;;;;;;;;;;10424673;28;20217;-81
2023/01/23 21:39:15;;;;;;;20.27;8.73;;;;;;;;;;10437131;28;20957;-80
2023/01/23 21:44:17;;;;;;;15.07;8.68;;;;;;;;;;10411147;28;20245;-80
2023/01/23 21:49:18;;;;;;;16.52;7.72;;;;;;;;;;10418946;28;20215;-80
2023/01/23 21:54:20;;;;;;;14.85;7.63;;;;;;;;;;10435395;28;20210;-81
2023/01/23 21:59:21;;;;;;;14.40;8.02;;;;;;;;;;10400324;28;20314;-80
2023/01/23 22:04:22;;;;;;;21.48;9.10;;;;;;;;;;10427802;28;20883;-80
2023/01/23 22:09:24;;;;;;;14.30;7.70;;;;;;;;;;10435636;28;20246;-80
2023/01/23 22:14:25;;;;;;;14.77;7.93;;;;;;;;;;10414612;28;20214;-80
2023/01/23 22:19:26;;;;;;;15.05;8.15;;;;;;;;;;10437765;28;20306;-80
2023/01/23 22:24:29;;;;;;;15.57;8.02;;;;;;;;;;10435912;28;20210;-81
2023/01/23 22:29:30;;;;;;;12.48;7.95;;;;;;;;;;10415165;28;20226;-78
2023/01/23 22:34:31;;;;;;;15.70;7.43;;;;;;;;;;10420142;28;20225;-80
2023/01/23 22:39:32;;;;;;;18.00;7.72;;;;;;;;;;10397108;28;20215;-80
2023/01/23 22:44:33;;;;;;;12.48;6.93;;;;;;;;;;10433237;28;20210;-80
2023/01/23 22:49:34;;;;;;;12.77;6.00;;;;;;;;;;10413348;28;20830;-79
2023/01/23 22:54:35;;;;;;;18.10;8.88;;;;;;;;;;10398025;28;20218;-80
2023/01/23 22:59:37;;;;;;;13.82;7.57;;;;;;;;;;10430441;28;20297;-80
2023/01/23 23:04:38;;;;;;;14.07;6.97;;;;;;;;;;10422108;28;20215;-80
2023/01/23 23:09:39;;;;;;;13.25;6.57;;;;;;;;;;10421376;28;20214;-80
2023/01/23 23:14:40;;;;;;;15.18;7.38;;;;;;;;;;10413955;28;21185;-81
2023/01/23 23:19:42;;;;;;;14.52;7.03;;;;;;;;;;10403460;28;20301;-79
2023/01/23 23:24:43;;;;;;;12.68;7.38;;;;;;;;;;10390948;28;20202;-80
2023/01/23 23:29:44;;;;;;;14.85;7.13;;;;;;;;;;10413608;28;20947;-79
2023/01/23 23:34:45;;;;;;;16.42;7.40;;;;;;;;;;10414462;28;20222;-80
2023/01/23 23:39:46;;;;;;;13.38;7.50;;;;;;;;;;10437472;28;20218;-80
2023/01/23 23:44:47;;;;;;;18.77;9.32;;;;;;;;;;10418196;28;20305;-81
2023/01/23 23:49:48;;;;;;;11.95;6.95;;;;;;;;;;10413426;28;20223;-79
2023/01/23 23:54:49;;;;;;;13.73;7.07;;;;;;;;;;10438366;28;20218;-80
2023/01/23 23:59:50;;;;;;;15.00;7.15;;;;;;;;;;10434068;28;20222;-80
